createdAt,value
2019-04-10T00:00:06.455Z,68.95
2019-04-10T00:01:08.879Z,68.74
2019-04-10T00:02:05.520Z,68.67
2019-04-10T00:03:06.149Z,68.36
2019-04-10T00:04:05.495Z,68.57
2019-04-10T00:05:05.540Z,68.67
2019-04-10T00:06:06.662Z,68.49
2019-04-10T00:07:12.789Z,68.67
2019-04-10T00:08:06.447Z,68.77
2019-04-10T00:09:06.423Z,69.19
2019-04-10T00:10:05.623Z,69.19
2019-04-10T00:11:05.420Z,69.60
2019-04-10T00:12:05.431Z,69.12
2019-04-10T00:13:06.557Z,69.22
2019-04-10T00:14:05.462Z,69.64
2019-04-10T00:15:05.417Z,69.43
2019-04-10T00:16:05.653Z,69.53
2019-04-10T00:17:05.352Z,69.84
2019-04-10T00:18:05.407Z,69.84
2019-04-10T00:19:06.464Z,69.84
2019-04-10T00:20:05.357Z,69.95
2019-04-10T00:21:05.304Z,70.15
2019-04-10T00:22:06.309Z,70.15
2019-04-10T00:23:05.284Z,70.29
2019-04-10T00:24:05.998Z,70.57
2019-04-10T00:25:05.343Z,70.26
2019-04-10T00:26:05.557Z,70.57
2019-04-10T00:27:06.111Z,70.26
2019-04-10T00:28:05.345Z,70.15
2019-04-10T00:29:05.760Z,69.87
2019-04-10T00:30:06.951Z,69.74
2019-04-10T00:31:05.363Z,70.47
2019-04-10T00:32:05.737Z,70.50
2019-04-10T00:33:05.169Z,69.98
2019-04-10T00:34:05.408Z,69.98
2019-04-10T00:35:06.456Z,70.39
2019-04-10T00:36:05.155Z,69.87
2019-04-10T00:37:05.863Z,70.21
2019-04-10T00:38:05.205Z,69.90
2019-04-10T00:39:05.107Z,69.80
2019-04-10T00:40:05.166Z,70.11
2019-04-10T00:41:06.014Z,69.77
2019-04-10T00:42:05.137Z,70.32
2019-04-10T00:43:05.064Z,70.01
2019-04-10T00:44:05.754Z,70.53
2019-04-10T00:45:05.082Z,70.60
2019-04-10T00:46:06.082Z,70.84
2019-04-10T00:47:05.023Z,70.01
2019-04-10T00:48:05.776Z,69.90
2019-04-10T00:49:05.132Z,70.11
2019-04-10T00:50:06.327Z,70.32
2019-04-10T00:51:06.799Z,70.11
2019-04-10T00:52:05.964Z,70.01
2019-04-10T00:53:05.123Z,70.32
2019-04-10T00:54:05.689Z,70.46
2019-04-10T00:55:05.711Z,71.04
2019-04-10T00:56:05.115Z,70.97
2019-04-10T00:57:05.246Z,71.49
2019-04-10T00:58:05.809Z,70.67
2019-04-10T00:59:05.904Z,70.67
2019-04-10T01:00:04.921Z,70.56
2019-04-10T01:01:05.591Z,70.87
2019-04-10T01:02:04.857Z,70.76
2019-04-10T01:03:05.173Z,71.49
2019-04-10T01:04:04.841Z,70.97
2019-04-10T01:05:04.905Z,71.28
2019-04-10T01:06:05.900Z,71.08
2019-04-10T01:07:04.807Z,70.97
2019-04-10T01:08:04.799Z,71.28
2019-04-10T01:09:04.813Z,71.01
2019-04-10T01:10:04.814Z,71.18
2019-04-10T01:11:04.765Z,71.08
2019-04-10T01:12:05.756Z,71.39
2019-04-10T01:13:04.939Z,70.56
2019-04-10T01:14:05.420Z,70.67
2019-04-10T01:15:04.777Z,70.80
2019-04-10T01:16:04.714Z,70.80
2019-04-10T01:17:04.695Z,71.11
2019-04-10T01:18:04.692Z,70.59
2019-04-10T01:19:05.755Z,70.90
2019-04-10T01:20:05.691Z,71.11
2019-04-10T01:21:04.651Z,71.56
2019-04-10T01:22:04.663Z,71.32
2019-04-10T01:23:05.716Z,71.35
2019-04-10T01:24:05.648Z,71.25
2019-04-10T01:25:04.648Z,71.14
2019-04-10T01:26:05.224Z,71.77
2019-04-10T01:27:04.592Z,70.83
2019-04-10T01:28:04.699Z,70.83
2019-04-10T01:29:05.122Z,71.25
2019-04-10T01:30:04.603Z,71.35
2019-04-10T01:31:04.559Z,71.35
2019-04-10T01:32:05.620Z,71.25
2019-04-10T01:33:04.519Z,71.14
2019-04-10T01:34:05.354Z,71.45
2019-04-10T01:35:05.699Z,70.94
2019-04-10T01:36:04.809Z,71.04
2019-04-10T01:37:04.754Z,71.04
2019-04-10T01:38:06.118Z,70.52
2019-04-10T01:39:04.456Z,71.35
2019-04-10T01:40:04.553Z,69.90
2019-04-10T01:41:04.436Z,70.87
2019-04-10T01:42:04.433Z,71.39
2019-04-10T01:43:10.844Z,71.59
2019-04-10T01:44:05.680Z,70.21
2019-04-10T01:45:04.947Z,70.25
2019-04-10T01:46:04.403Z,70.00
2019-04-10T01:47:04.687Z,70.66
2019-04-10T01:48:04.372Z,70.42
2019-04-10T01:49:05.196Z,70.45
2019-04-10T01:50:04.515Z,69.93
2019-04-10T01:51:04.325Z,70.04
2019-04-10T01:52:04.801Z,70.48
2019-04-10T01:53:04.310Z,70.35
2019-04-10T01:54:04.291Z,70.48
2019-04-10T01:55:17.214Z,70.48
2019-04-10T01:56:05.437Z,70.35
2019-04-10T01:57:04.262Z,70.35
2019-04-10T01:58:05.147Z,70.25
2019-04-10T01:59:04.242Z,70.69
2019-04-10T02:00:04.662Z,70.25
2019-04-10T02:01:04.222Z,70.38
2019-04-10T02:02:05.171Z,70.69
2019-04-10T02:03:04.191Z,70.17
2019-04-10T02:04:04.664Z,70.07
2019-04-10T02:05:04.181Z,70.38
2019-04-10T02:06:07.167Z,70.48
2019-04-10T02:07:04.152Z,70.38
2019-04-10T02:08:09.014Z,70.48
2019-04-10T02:09:05.176Z,70.28
2019-04-10T02:10:04.117Z,70.28
2019-04-10T02:11:04.839Z,70.28
2019-04-10T02:12:04.163Z,70.10
2019-04-10T02:13:04.099Z,70.28
2019-04-10T02:14:04.074Z,69.86
2019-04-10T02:15:04.865Z,69.89
2019-04-10T02:16:04.096Z,69.86
2019-04-10T02:17:04.302Z,69.55
2019-04-10T02:18:04.040Z,69.65
2019-04-10T02:19:04.025Z,69.37
2019-04-10T02:20:04.926Z,69.76
2019-04-10T02:21:04.054Z,69.89
2019-04-10T02:22:04.415Z,70.20
2019-04-10T02:23:03.973Z,70.10
2019-04-10T02:24:05.046Z,70.13
2019-04-10T02:25:03.955Z,70.44
2019-04-10T02:26:03.979Z,69.58
2019-04-10T02:27:03.953Z,69.71
2019-04-10T02:28:04.887Z,69.71
2019-04-10T02:29:03.922Z,69.71
2019-04-10T02:30:05.146Z,70.23
2019-04-10T02:31:04.755Z,69.51
2019-04-10T02:32:04.244Z,69.61
2019-04-10T02:33:04.331Z,68.99
2019-04-10T02:34:04.783Z,68.88
2019-04-10T02:35:04.674Z,69.71
2019-04-10T02:36:05.479Z,69.61
2019-04-10T02:37:03.832Z,69.71
2019-04-10T02:38:22.908Z,69.61
2019-04-10T02:39:15.208Z,69.58
2019-04-10T02:40:06.759Z,69.61
2019-04-10T02:41:03.811Z,69.30
2019-04-10T02:42:03.778Z,69.51
2019-04-10T02:43:05.424Z,68.99
2019-04-10T02:44:04.881Z,69.92
2019-04-10T02:45:03.749Z,69.74
2019-04-10T02:46:04.176Z,69.96
2019-04-10T02:47:04.419Z,69.74
2019-04-10T02:48:04.476Z,69.43
2019-04-10T02:49:04.283Z,69.54
2019-04-10T02:50:06.197Z,69.51
2019-04-10T02:51:05.480Z,69.43
2019-04-10T02:52:04.069Z,69.64
2019-04-10T02:53:05.363Z,69.57
2019-04-10T02:54:05.056Z,69.23
2019-04-10T02:55:03.883Z,69.54
2019-04-10T02:56:05.261Z,69.33
2019-04-10T02:57:05.071Z,68.91
2019-04-10T02:58:03.600Z,69.85
2019-04-10T02:59:04.973Z,69.54
2019-04-10T03:00:05.195Z,69.85
2019-04-10T03:01:03.655Z,69.33
2019-04-10T03:02:04.258Z,69.43
2019-04-10T03:03:03.672Z,69.54
2019-04-10T03:04:03.527Z,69.64
2019-04-10T03:05:04.596Z,69.74
2019-04-10T03:06:04.968Z,69.64
2019-04-10T03:07:04.331Z,69.47
2019-04-10T03:08:04.860Z,69.43
2019-04-10T03:09:21.770Z,69.64
2019-04-10T03:10:15.288Z,69.68
2019-04-10T03:11:08.590Z,69.78
2019-04-10T03:12:06.128Z,69.57
2019-04-10T03:13:04.766Z,69.47
2019-04-10T03:14:04.517Z,69.37
2019-04-10T03:15:04.219Z,69.99
2019-04-10T03:16:03.443Z,69.47
2019-04-10T03:17:03.825Z,69.37
2019-04-10T03:18:04.256Z,69.26
2019-04-10T03:19:03.359Z,68.95
2019-04-10T03:20:03.355Z,69.47
2019-04-10T03:21:03.413Z,69.47
2019-04-10T03:22:03.905Z,69.47
2019-04-10T03:23:03.318Z,69.89
2019-04-10T03:24:04.239Z,69.78
2019-04-10T03:25:04.421Z,69.89
2019-04-10T03:26:03.557Z,69.81
2019-04-10T03:27:03.776Z,69.68
2019-04-10T03:28:03.262Z,69.71
2019-04-10T03:29:03.420Z,70.12
2019-04-10T03:30:05.052Z,70.43
2019-04-10T03:31:05.380Z,69.81
2019-04-10T03:32:04.514Z,69.78
2019-04-10T03:33:06.485Z,70.20
2019-04-10T03:34:08.194Z,70.09
2019-04-10T03:35:03.186Z,70.23
2019-04-10T03:36:03.295Z,70.43
2019-04-10T03:37:04.292Z,70.12
2019-04-10T03:38:03.153Z,70.26
2019-04-10T03:39:06.176Z,70.43
2019-04-10T03:40:03.130Z,70.23
2019-04-10T03:41:04.021Z,70.75
2019-04-10T03:42:04.290Z,70.54
2019-04-10T03:43:03.550Z,70.47
2019-04-10T03:44:03.095Z,70.68
2019-04-10T03:45:03.354Z,70.33
2019-04-10T03:46:03.358Z,70.43
2019-04-10T03:47:03.056Z,70.57
2019-04-10T03:48:04.792Z,70.15
2019-04-10T03:49:03.228Z,70.57
2019-04-10T03:50:03.099Z,70.36
2019-04-10T03:51:03.944Z,70.26
2019-04-10T03:52:03.167Z,70.36
2019-04-10T03:53:02.993Z,70.26
2019-04-10T03:54:02.995Z,70.26
2019-04-10T03:55:03.004Z,69.74
2019-04-10T03:56:03.008Z,70.36
2019-04-10T03:57:02.949Z,70.36
2019-04-10T03:58:02.930Z,70.29
2019-04-10T03:59:04.092Z,70.68
2019-04-10T04:00:03.647Z,70.89
2019-04-10T04:01:02.934Z,70.26
2019-04-10T04:02:03.199Z,70.57
2019-04-10T04:03:02.890Z,71.09
2019-04-10T04:04:02.873Z,70.47
2019-04-10T04:05:02.859Z,70.29
2019-04-10T04:06:03.643Z,70.50
2019-04-10T04:07:02.847Z,70.50
2019-04-10T04:08:04.012Z,70.26
2019-04-10T04:09:07.755Z,70.78
2019-04-10T04:10:04.383Z,70.92
2019-04-10T04:11:02.855Z,70.89
2019-04-10T04:12:02.779Z,70.81
2019-04-10T04:13:04.965Z,70.92
2019-04-10T04:14:02.787Z,70.81
2019-04-10T04:15:03.661Z,71.02
2019-04-10T04:16:02.792Z,70.71
2019-04-10T04:17:02.724Z,70.71
2019-04-10T04:18:02.719Z,70.29
2019-04-10T04:19:03.820Z,70.61
2019-04-10T04:20:02.721Z,70.64
2019-04-10T04:21:03.487Z,71.33
2019-04-10T04:22:02.673Z,70.61
2019-04-10T04:23:03.477Z,70.81
2019-04-10T04:24:03.635Z,70.64
2019-04-10T04:25:02.639Z,71.23
2019-04-10T04:26:03.038Z,71.05
2019-04-10T04:27:02.815Z,70.74
2019-04-10T04:28:02.640Z,71.89
2019-04-10T04:29:02.596Z,71.16
2019-04-10T04:30:02.599Z,71.37
2019-04-10T04:31:03.112Z,71.78
2019-04-10T04:32:02.568Z,71.37
2019-04-10T04:33:02.646Z,70.74
2019-04-10T04:34:02.559Z,70.50
2019-04-10T04:35:02.556Z,70.43
2019-04-10T04:36:04.081Z,71.16
2019-04-10T04:37:02.556Z,70.74
2019-04-10T04:38:02.621Z,71.23
2019-04-10T04:39:12.787Z,70.81
2019-04-10T04:40:03.478Z,71.05
2019-04-10T04:41:02.528Z,71.68
2019-04-10T04:42:03.075Z,71.68
2019-04-10T04:43:03.595Z,70.84
2019-04-10T04:44:02.435Z,70.53
2019-04-10T04:45:03.051Z,70.74
2019-04-10T04:46:03.313Z,71.37
2019-04-10T04:47:03.382Z,71.23
2019-04-10T04:48:02.423Z,70.95
2019-04-10T04:49:02.406Z,70.53
2019-04-10T04:50:03.436Z,71.26
2019-04-10T04:51:03.274Z,71.16
2019-04-10T04:52:02.623Z,70.32
2019-04-10T04:53:02.426Z,70.74
2019-04-10T04:54:02.357Z,70.74
2019-04-10T04:55:02.334Z,70.32
2019-04-10T04:56:02.354Z,71.16
2019-04-10T04:57:02.399Z,70.74
2019-04-10T04:58:02.289Z,70.64
2019-04-10T04:59:02.287Z,70.92
2019-04-10T05:00:03.240Z,70.81
2019-04-10T05:01:02.280Z,70.29
2019-04-10T05:02:03.377Z,70.71
2019-04-10T05:03:02.227Z,70.29
2019-04-10T05:04:02.453Z,70.26
2019-04-10T05:05:02.516Z,70.05
2019-04-10T05:06:02.203Z,70.26
2019-04-10T05:07:02.373Z,70.26
2019-04-10T05:08:04.114Z,69.64
2019-04-10T05:09:02.836Z,69.60
2019-04-10T05:10:02.287Z,68.77
2019-04-10T05:11:02.237Z,69.53
2019-04-10T05:12:02.925Z,69.71
2019-04-10T05:13:02.166Z,69.50
2019-04-10T05:14:02.740Z,68.95
2019-04-10T05:15:02.626Z,68.95
2019-04-10T05:16:02.636Z,68.56
2019-04-10T05:17:02.137Z,68.56
2019-04-10T05:18:02.152Z,68.84
2019-04-10T05:19:02.052Z,68.01
2019-04-10T05:20:02.975Z,68.12
2019-04-10T05:21:03.033Z,68.35
2019-04-10T05:22:02.057Z,68.74
2019-04-10T05:23:02.150Z,68.53
2019-04-10T05:24:03.165Z,67.88
2019-04-10T05:25:03.052Z,67.36
2019-04-10T05:26:02.447Z,66.74
2019-04-10T05:27:02.024Z,67.67
2019-04-10T05:28:01.976Z,67.67
2019-04-10T05:29:02.667Z,67.15
2019-04-10T05:30:02.373Z,67.25
2019-04-10T05:31:03.009Z,67.25
2019-04-10T05:32:01.993Z,67.12
2019-04-10T05:33:02.047Z,66.60
2019-04-10T05:34:02.971Z,66.67
2019-04-10T05:35:05.165Z,66.28
2019-04-10T05:36:02.875Z,66.39
2019-04-10T05:37:03.055Z,66.50
2019-04-10T05:38:02.552Z,66.88
2019-04-10T05:39:02.187Z,66.47
2019-04-10T05:40:01.838Z,65.29
2019-04-10T05:41:01.846Z,65.60
2019-04-10T05:42:02.484Z,65.53
2019-04-10T05:43:01.807Z,66.22
2019-04-10T05:44:02.801Z,65.26
2019-04-10T05:45:03.031Z,65.19
2019-04-10T05:46:02.807Z,65.47
2019-04-10T05:47:01.797Z,65.68
2019-04-10T05:48:01.793Z,65.68
2019-04-10T05:49:01.733Z,65.91
2019-04-10T05:50:02.003Z,65.19
2019-04-10T05:51:04.782Z,65.29
2019-04-10T05:52:02.736Z,65.29
2019-04-10T05:53:02.334Z,65.58
2019-04-10T05:54:02.267Z,64.92
2019-04-10T05:55:02.282Z,64.30
2019-04-10T05:56:01.647Z,64.75
2019-04-10T05:57:01.705Z,64.61
2019-04-10T05:58:01.778Z,64.20
2019-04-10T05:59:01.619Z,64.54
2019-04-10T06:00:02.628Z,65.39
2019-04-10T06:01:01.595Z,65.39
2019-04-10T06:02:01.619Z,65.65
2019-04-10T06:03:01.634Z,64.98
2019-04-10T06:04:01.562Z,65.44
2019-04-10T06:05:02.371Z,64.30
2019-04-10T06:06:01.563Z,65.34
2019-04-10T06:07:01.566Z,64.51
2019-04-10T06:08:01.519Z,64.40
2019-04-10T06:09:02.550Z,64.09
2019-04-10T06:10:05.006Z,64.20
2019-04-10T06:11:02.478Z,64.51
2019-04-10T06:12:03.478Z,64.17
2019-04-10T06:13:02.539Z,64.17
2019-04-10T06:14:01.449Z,64.58
2019-04-10T06:15:02.469Z,64.37
2019-04-10T06:16:01.592Z,63.85
2019-04-10T06:17:04.063Z,63.72
2019-04-10T06:18:01.423Z,63.48
2019-04-10T06:19:01.830Z,62.99
2019-04-10T06:20:01.394Z,62.73
2019-04-10T06:21:01.411Z,62.73
2019-04-10T06:22:01.400Z,61.98
2019-04-10T06:23:01.467Z,61.77
2019-04-10T06:24:01.350Z,61.33
2019-04-10T06:25:01.393Z,61.83
2019-04-10T06:26:03.387Z,63.48
2019-04-10T06:27:01.922Z,64.55
2019-04-10T06:28:01.325Z,62.97
2019-04-10T06:29:02.387Z,62.76
2019-04-10T06:30:01.882Z,63.07
2019-04-10T06:31:01.301Z,62.52
2019-04-10T06:32:01.304Z,61.51
2019-04-10T06:33:02.189Z,60.75
2019-04-10T06:34:01.428Z,60.03
2019-04-10T06:35:01.928Z,59.83
2019-04-10T06:36:01.216Z,59.39
2019-04-10T06:37:01.887Z,58.76
2019-04-10T06:38:02.339Z,59.08
2019-04-10T06:39:02.563Z,59.13
2019-04-10T06:40:11.048Z,60.30
2019-04-10T06:41:02.247Z,61.43
2019-04-10T06:42:02.367Z,61.58
2019-04-10T06:43:01.168Z,60.47
2019-04-10T06:44:01.478Z,61.64
2019-04-10T06:45:01.125Z,61.10
2019-04-10T06:46:01.092Z,60.44
2019-04-10T06:47:02.173Z,59.59
2019-04-10T06:48:01.076Z,59.18
2019-04-10T06:49:01.177Z,59.39
2019-04-10T06:50:02.464Z,60.00
2019-04-10T06:51:02.060Z,59.62
2019-04-10T06:52:01.905Z,59.74
2019-04-10T06:53:01.665Z,59.36
2019-04-10T06:54:06.924Z,59.15
2019-04-10T06:55:02.995Z,58.84
2019-04-10T06:56:01.098Z,59.36
2019-04-10T06:57:01.015Z,58.69
2019-04-10T06:58:01.060Z,57.78
2019-04-10T06:59:01.027Z,58.40
2019-04-10T07:00:02.269Z,59.05
2019-04-10T07:01:01.807Z,59.36
2019-04-10T07:02:13.075Z,59.25
2019-04-10T07:03:02.995Z,58.48
2019-04-10T07:04:04.273Z,58.48
2019-04-10T07:05:05.863Z,58.06
2019-04-10T07:06:09.611Z,58.61
2019-04-10T07:07:07.931Z,57.32
2019-04-10T07:08:10.910Z,56.49
2019-04-10T07:09:03.199Z,57.52
2019-04-10T07:10:02.168Z,56.59
2019-04-10T07:11:06.020Z,56.36
2019-04-10T07:12:04.187Z,57.86
2019-04-10T07:13:04.307Z,58.45
2019-04-10T07:14:01.884Z,57.18
2019-04-10T07:15:00.811Z,56.36
2019-04-10T07:16:00.767Z,56.98
2019-04-10T07:17:05.357Z,56.65
2019-04-10T07:18:01.754Z,56.31
2019-04-10T07:19:04.345Z,55.57
2019-04-10T07:20:01.979Z,54.69
2019-04-10T07:21:01.682Z,55.57
2019-04-10T07:22:01.936Z,55.93
2019-04-10T07:23:00.693Z,55.13
2019-04-10T07:24:05.055Z,55.62
2019-04-10T07:25:02.806Z,56.85
2019-04-10T07:26:01.727Z,55.74
2019-04-10T07:27:03.358Z,56.31
2019-04-10T07:28:01.386Z,55.93
2019-04-10T07:29:00.641Z,55.98
2019-04-10T07:30:01.627Z,54.69
2019-04-10T07:31:04.729Z,54.64
2019-04-10T07:32:04.783Z,55.38
2019-04-10T07:33:01.569Z,55.49
2019-04-10T07:34:01.405Z,56.44
2019-04-10T07:35:01.861Z,56.03
2019-04-10T07:36:04.235Z,56.52
2019-04-10T07:37:02.247Z,56.44
2019-04-10T07:38:01.389Z,56.13
2019-04-10T07:39:01.485Z,56.62
2019-04-10T07:40:04.213Z,55.41
2019-04-10T07:41:00.481Z,55.00
2019-04-10T07:42:00.512Z,54.82
2019-04-10T07:43:00.462Z,54.61
2019-04-10T07:44:01.639Z,54.92
2019-04-10T07:45:00.442Z,55.74
2019-04-10T07:46:00.434Z,54.61
2019-04-10T07:47:00.866Z,54.61
2019-04-10T07:48:00.411Z,55.82
2019-04-10T07:49:00.696Z,54.13
2019-04-10T07:50:02.115Z,51.82
2019-04-10T07:51:00.626Z,51.51
2019-04-10T07:52:00.930Z,52.07
2019-04-10T07:53:00.351Z,52.97
2019-04-10T07:54:00.371Z,53.00
2019-04-10T07:55:00.968Z,52.95
2019-04-10T07:56:06.420Z,51.79
2019-04-10T07:57:02.066Z,53.72
2019-04-10T07:58:00.351Z,53.35
2019-04-10T07:59:00.532Z,54.43
2019-04-10T08:00:00.896Z,53.41
2019-04-10T08:01:01.188Z,52.02
2019-04-10T08:02:00.331Z,52.10
2019-04-10T08:03:00.272Z,51.69
2019-04-10T08:04:00.239Z,51.13
2019-04-10T08:05:00.256Z,50.95
2019-04-10T08:06:00.426Z,51.61
2019-04-10T08:07:00.948Z,51.90
2019-04-10T08:08:00.939Z,51.79
2019-04-10T08:09:01.229Z,51.28
2019-04-10T08:10:01.335Z,52.64
2019-04-10T08:11:00.163Z,53.56
2019-04-10T08:12:00.269Z,52.92
2019-04-10T08:13:00.334Z,52.92
2019-04-10T08:14:01.123Z,53.33
2019-04-10T08:15:00.694Z,53.87
2019-04-10T08:16:00.745Z,52.82
2019-04-10T08:17:01.140Z,51.69
2019-04-10T08:18:00.430Z,52.61
2019-04-10T08:19:00.066Z,50.93
2019-04-10T08:20:00.128Z,50.70
2019-04-10T08:21:00.151Z,50.67
2019-04-10T08:22:01.141Z,51.10
2019-04-10T08:23:00.110Z,50.93
2019-04-10T08:24:00.403Z,50.42
2019-04-10T08:25:00.204Z,51.69
2019-04-10T08:26:00.163Z,51.56
2019-04-10T08:27:01.101Z,51.46
2019-04-10T08:28:00.650Z,51.36
2019-04-10T08:28:59.991Z,51.54
2019-04-10T08:30:01.110Z,50.96
2019-04-10T08:31:00.913Z,51.21
2019-04-10T08:31:59.923Z,51.29
2019-04-10T08:33:01.622Z,52.05
2019-04-10T08:34:01.026Z,52.56
2019-04-10T08:35:00.372Z,52.64
2019-04-10T08:36:01.065Z,51.51
2019-04-10T08:36:59.969Z,51.93
2019-04-10T08:38:01.193Z,52.03
2019-04-10T08:38:59.913Z,51.93
2019-04-10T08:39:59.928Z,51.50
2019-04-10T08:41:00.764Z,51.21
2019-04-10T08:42:00.060Z,51.37
2019-04-10T08:43:00.012Z,49.35
2019-04-10T08:43:59.783Z,49.46
2019-04-10T08:45:00.735Z,51.26
2019-04-10T08:46:01.806Z,50.83
2019-04-10T08:47:00.180Z,49.43
2019-04-10T08:47:59.808Z,48.84
2019-04-10T08:49:00.184Z,49.87
2019-04-10T08:49:59.721Z,49.82
2019-04-10T08:51:00.945Z,49.30
2019-04-10T08:51:59.945Z,50.93
2019-04-10T08:53:00.005Z,51.98
2019-04-10T08:54:00.650Z,51.72
2019-04-10T08:54:59.725Z,51.75
2019-04-10T08:55:59.662Z,51.18
2019-04-10T08:56:59.631Z,50.45
2019-04-10T08:58:00.635Z,50.96
2019-04-10T08:58:59.707Z,51.06
2019-04-10T09:00:00.420Z,50.80
2019-04-10T09:01:00.453Z,51.50
2019-04-10T09:01:59.882Z,50.42
2019-04-10T09:03:00.301Z,50.83
2019-04-10T09:03:59.563Z,49.17
2019-04-10T09:04:59.556Z,48.89
2019-04-10T09:06:00.838Z,49.81
2019-04-10T09:07:01.363Z,49.32
2019-04-10T09:08:00.352Z,50.22
2019-04-10T09:08:59.519Z,50.55
2019-04-10T09:09:59.551Z,50.01
2019-04-10T09:10:59.486Z,49.07
2019-04-10T09:11:59.830Z,48.76
2019-04-10T09:13:00.048Z,48.43
2019-04-10T09:13:59.509Z,48.21
2019-04-10T09:14:59.460Z,47.14
2019-04-10T09:16:00.411Z,48.25
2019-04-10T09:17:00.636Z,48.97
2019-04-10T09:17:59.816Z,49.30
2019-04-10T09:18:59.399Z,49.91
2019-04-10T09:20:00.594Z,49.30
2019-04-10T09:21:00.193Z,47.82
2019-04-10T09:22:00.563Z,49.05
2019-04-10T09:23:17.794Z,48.28
2019-04-10T09:24:00.714Z,47.42
2019-04-10T09:25:00.572Z,46.66
2019-04-10T09:25:59.660Z,46.55
2019-04-10T09:27:00.283Z,46.73
2019-04-10T09:28:00.216Z,47.90
2019-04-10T09:28:59.295Z,46.55
2019-04-10T09:30:00.363Z,47.16
2019-04-10T09:30:59.534Z,46.86
2019-04-10T09:31:59.242Z,48.00
2019-04-10T09:33:00.718Z,48.31
2019-04-10T09:33:59.265Z,48.33
2019-04-10T09:35:00.255Z,48.43
2019-04-10T09:35:59.197Z,48.84
2019-04-10T09:36:59.914Z,47.88
2019-04-10T09:37:59.212Z,46.51
2019-04-10T09:38:59.218Z,45.54
2019-04-10T09:40:00.117Z,46.30
2019-04-10T09:40:59.147Z,44.93
2019-04-10T09:41:59.136Z,45.01
2019-04-10T09:42:59.790Z,45.10
2019-04-10T09:44:00.227Z,45.53
2019-04-10T09:44:59.102Z,45.24
2019-04-10T09:46:00.004Z,43.63
2019-04-10T09:47:00.014Z,42.82
2019-04-10T09:48:00.002Z,44.04
2019-04-10T09:48:59.093Z,45.59
2019-04-10T09:49:59.759Z,45.06
2019-04-10T09:51:00.207Z,45.16
2019-04-10T09:51:59.095Z,43.10
2019-04-10T09:53:00.012Z,43.59
2019-04-10T09:53:59.457Z,43.37
2019-04-10T09:54:59.583Z,44.34
2019-04-10T09:55:59.093Z,44.38
2019-04-10T09:56:59.159Z,43.02
2019-04-10T09:58:00.166Z,42.47
2019-04-10T09:58:59.062Z,43.41
2019-04-10T09:59:59.061Z,44.20
2019-04-10T10:00:58.927Z,44.16
2019-04-10T10:01:58.970Z,44.32
2019-04-10T10:02:59.324Z,42.63
2019-04-10T10:03:59.176Z,41.25
2019-04-10T10:04:59.055Z,40.89
2019-04-10T10:06:00.097Z,39.86
2019-04-10T10:06:59.827Z,40.70
2019-04-10T10:08:00.123Z,42.59
2019-04-10T10:08:58.836Z,42.25
2019-04-10T10:10:00.745Z,41.05
2019-04-10T10:10:59.762Z,40.44
2019-04-10T10:11:58.999Z,41.49
2019-04-10T10:12:59.118Z,42.41
2019-04-10T10:13:58.781Z,41.52
2019-04-10T10:14:58.767Z,41.60
2019-04-10T10:15:58.814Z,41.33
2019-04-10T10:16:58.750Z,42.86
2019-04-10T10:17:59.249Z,42.00
2019-04-10T10:18:59.473Z,42.39
2019-04-10T10:19:59.518Z,42.08
2019-04-10T10:20:59.771Z,42.49
2019-04-10T10:22:01.753Z,42.61
2019-04-10T10:22:59.683Z,42.92
2019-04-10T10:23:58.668Z,43.16
2019-04-10T10:24:59.358Z,43.06
2019-04-10T10:25:59.630Z,42.21
2019-04-10T10:26:59.697Z,41.78
2019-04-10T10:27:58.744Z,41.56
2019-04-10T10:28:58.658Z,41.15
2019-04-10T10:29:58.616Z,41.49
2019-04-10T10:30:58.591Z,43.18
2019-04-10T10:31:58.585Z,43.16
2019-04-10T10:32:59.373Z,43.71
2019-04-10T10:33:58.557Z,43.38
2019-04-10T10:34:58.842Z,43.87
2019-04-10T10:35:59.620Z,43.32
2019-04-10T10:37:00.185Z,43.02
2019-04-10T10:37:58.919Z,42.90
2019-04-10T10:39:06.880Z,43.84
2019-04-10T10:39:59.503Z,42.96
2019-04-10T10:40:59.131Z,44.49
2019-04-10T10:41:59.519Z,43.59
2019-04-10T10:42:58.507Z,41.49
2019-04-10T10:43:58.579Z,40.64
2019-04-10T10:44:58.573Z,40.83
2019-04-10T10:45:58.928Z,41.24
2019-04-10T10:46:58.574Z,40.91
2019-04-10T10:47:58.543Z,40.72
2019-04-10T10:48:58.500Z,41.27
2019-04-10T10:49:59.055Z,40.61
2019-04-10T10:50:58.478Z,41.42
2019-04-10T10:51:59.429Z,40.99
2019-04-10T10:52:58.438Z,41.21
2019-04-10T10:54:00.163Z,40.50
2019-04-10T10:54:59.066Z,40.93
2019-04-10T10:55:58.334Z,42.43
2019-04-10T10:56:58.533Z,42.55
2019-04-10T10:57:59.324Z,40.79
2019-04-10T10:58:58.971Z,41.27
2019-04-10T10:59:58.335Z,44.22
2019-04-10T11:00:58.299Z,44.24
2019-04-10T11:01:58.254Z,42.94
2019-04-10T11:02:58.306Z,42.55
2019-04-10T11:03:58.408Z,42.65
2019-04-10T11:05:02.234Z,42.94
2019-04-10T11:06:00.378Z,43.98
2019-04-10T11:07:00.890Z,42.51
2019-04-10T11:07:59.762Z,42.63
2019-04-10T11:08:58.176Z,40.97
2019-04-10T11:09:58.622Z,40.77
2019-04-10T11:10:59.393Z,40.75
2019-04-10T11:11:58.185Z,40.52
2019-04-10T11:12:58.511Z,40.83
2019-04-10T11:13:58.946Z,38.68
2019-04-10T11:14:59.434Z,38.93
2019-04-10T11:16:01.239Z,37.37
2019-04-10T11:16:59.131Z,38.26
2019-04-10T11:17:58.085Z,38.04
2019-04-10T11:18:59.007Z,37.98
2019-04-10T11:19:59.410Z,38.62
2019-04-10T11:21:02.758Z,38.47
2019-04-10T11:21:59.113Z,38.95
2019-04-10T11:22:58.034Z,38.56
2019-04-10T11:23:58.457Z,39.79
2019-04-10T11:24:58.023Z,37.99
2019-04-10T11:25:58.019Z,38.32
2019-04-10T11:26:57.989Z,38.84
2019-04-10T11:27:58.477Z,39.61
2019-04-10T11:28:58.088Z,40.09
2019-04-10T11:30:00.792Z,38.64
2019-04-10T11:30:58.619Z,38.32
2019-04-10T11:31:58.028Z,37.59
2019-04-10T11:32:58.279Z,38.10
2019-04-10T11:33:58.186Z,38.25
2019-04-10T11:34:59.014Z,39.18
2019-04-10T11:35:57.898Z,39.69
2019-04-10T11:37:16.592Z,40.56
2019-04-10T11:38:00.832Z,41.27
2019-04-10T11:39:10.560Z,40.39
2019-04-10T11:40:01.020Z,38.68
2019-04-10T11:40:59.947Z,38.74
2019-04-10T11:41:58.822Z,38.70
2019-04-10T11:43:00.004Z,38.45
2019-04-10T11:43:57.947Z,37.85
2019-04-10T11:44:59.217Z,38.03
2019-04-10T11:46:01.648Z,38.61
2019-04-10T11:46:58.804Z,40.39
2019-04-10T11:47:58.971Z,40.91
2019-04-10T11:48:57.777Z,41.33
2019-04-10T11:50:00.535Z,40.54
2019-04-10T11:51:00.625Z,40.48
2019-04-10T11:52:00.035Z,40.93
2019-04-10T11:53:00.344Z,42.49
2019-04-10T11:53:59.179Z,44.31
2019-04-10T11:55:06.798Z,42.43
2019-04-10T11:56:02.528Z,38.79
2019-04-10T11:57:01.510Z,37.26
2019-04-10T11:57:59.629Z,37.44
2019-04-10T11:58:59.269Z,38.66
2019-04-10T12:00:00.710Z,38.88
2019-04-10T12:00:59.602Z,39.10
2019-04-10T12:02:02.610Z,38.96
2019-04-10T12:03:00.865Z,37.32
2019-04-10T12:03:58.473Z,37.35
2019-04-10T12:05:03.432Z,38.15
2019-04-10T12:05:59.829Z,37.18
2019-04-10T12:07:01.171Z,35.94
2019-04-10T12:08:22.161Z,37.91
2019-04-10T12:09:19.384Z,38.39
2019-04-10T12:11:57.492Z,41.33
2019-04-10T12:12:57.629Z,40.84
2019-04-10T12:13:58.827Z,38.56
2019-04-10T12:14:57.470Z,38.30
2019-04-10T12:15:57.466Z,37.67
2019-04-10T12:16:57.761Z,38.43
2019-04-10T12:17:58.201Z,38.45
2019-04-10T12:18:57.471Z,39.69
2019-04-10T12:19:57.521Z,38.37
2019-04-10T12:20:57.672Z,38.35
2019-04-10T12:21:58.014Z,37.18
2019-04-10T12:22:57.403Z,36.80
2019-04-10T12:23:57.447Z,36.87
2019-04-10T12:24:58.455Z,36.61
2019-04-10T12:25:57.389Z,35.28
2019-04-10T12:26:58.321Z,35.95
2019-04-10T12:27:57.787Z,37.35
2019-04-10T12:28:58.236Z,37.46
2019-04-10T12:29:57.331Z,36.66
2019-04-10T12:30:57.536Z,35.90
2019-04-10T12:31:57.276Z,36.14
2019-04-10T12:32:57.357Z,36.32
2019-04-10T12:33:57.316Z,35.70
2019-04-10T12:34:58.075Z,36.41
2019-04-10T12:35:58.235Z,35.88
2019-04-10T12:36:57.228Z,36.51
2019-04-10T12:38:02.711Z,37.61
2019-04-10T12:38:58.265Z,36.29
2019-04-10T12:39:57.230Z,36.07
2019-04-10T12:40:57.301Z,36.93
2019-04-10T12:41:57.549Z,38.15
2019-04-10T12:42:57.179Z,38.51
2019-04-10T12:43:57.186Z,37.40
2019-04-10T12:44:57.829Z,36.52
2019-04-10T12:45:57.122Z,35.16
2019-04-10T12:46:57.456Z,36.10
2019-04-10T12:47:57.201Z,37.76
2019-04-10T12:48:57.141Z,38.09
2019-04-10T12:49:58.241Z,36.90
2019-04-10T12:50:57.157Z,36.54
2019-04-10T12:51:57.064Z,36.44
2019-04-10T12:52:57.110Z,35.95
2019-04-10T12:53:58.262Z,38.20